createdAt,value
2018-05-31T00:00:14.089Z,22.70
2018-05-31T00:02:44.839Z,22.83
2018-05-31T00:05:14.185Z,22.87
2018-05-31T00:07:43.518Z,22.92
2018-05-31T00:10:12.846Z,22.90
2018-05-31T00:12:42.709Z,22.95
2018-05-31T00:15:12.065Z,22.95
2018-05-31T00:17:42.182Z,22.93
2018-05-31T00:20:11.505Z,22.87
2018-05-31T00:22:41.646Z,22.83
2018-05-31T00:25:11.047Z,22.83
2018-05-31T00:27:40.303Z,22.77
2018-05-31T00:30:09.642Z,22.67
2018-05-31T00:32:39.730Z,22.57
2018-05-31T00:35:09.058Z,22.53
2018-05-31T00:37:39.145Z,22.46
2018-05-31T00:40:08.494Z,22.42
2018-05-31T00:42:38.603Z,22.45
2018-05-31T00:45:08.729Z,22.50
2018-05-31T00:47:38.859Z,22.50
2018-05-31T00:50:08.964Z,22.50
2018-05-31T00:52:39.033Z,22.52
2018-05-31T00:55:08.336Z,22.48
2018-05-31T00:57:37.688Z,22.43
2018-05-31T01:00:07.018Z,22.39
2018-05-31T01:02:36.380Z,22.36
2018-05-31T01:05:05.706Z,22.29
2018-05-31T01:07:35.797Z,22.25
2018-05-31T01:10:05.157Z,22.21
2018-05-31T01:12:34.516Z,22.12
2018-05-31T01:15:03.861Z,22.06
2018-05-31T01:17:33.161Z,21.99
2018-05-31T01:20:02.494Z,21.92
2018-05-31T01:22:31.836Z,21.88
2018-05-31T01:25:01.381Z,21.82
2018-05-31T01:27:30.717Z,21.82
2018-05-31T01:30:00.043Z,21.78
2018-05-31T01:32:29.347Z,21.77
2018-05-31T01:34:58.696Z,21.77
2018-05-31T01:37:28.017Z,21.79
2018-05-31T01:39:57.374Z,21.79
2018-05-31T01:42:26.716Z,21.71
2018-05-31T01:44:56.046Z,21.70
2018-05-31T01:47:26.065Z,21.74
2018-05-31T01:49:55.363Z,21.71
2018-05-31T01:52:24.718Z,21.79
2018-05-31T01:54:54.026Z,21.71
2018-05-31T01:57:23.350Z,21.65
2018-05-31T01:59:52.665Z,21.60
2018-05-31T02:02:22.014Z,21.58
2018-05-31T02:04:52.109Z,21.53
2018-05-31T02:07:21.612Z,21.48
2018-05-31T02:09:50.977Z,21.42
2018-05-31T02:12:20.289Z,21.37
2018-05-31T02:14:49.625Z,21.30
2018-05-31T02:17:18.974Z,21.32
2018-05-31T02:19:48.272Z,21.39
2018-05-31T02:22:17.632Z,21.45
2018-05-31T02:24:46.977Z,21.51
2018-05-31T02:27:16.326Z,21.61
2018-05-31T02:29:45.688Z,21.59
2018-05-31T02:32:14.994Z,21.62
2018-05-31T02:34:44.352Z,21.27
2018-05-31T02:37:13.713Z,21.10
2018-05-31T02:39:43.040Z,20.95
2018-05-31T02:42:12.379Z,20.79
2018-05-31T02:44:42.502Z,20.68
2018-05-31T02:47:12.649Z,20.69
2018-05-31T02:49:42.764Z,20.67
2018-05-31T02:52:12.101Z,20.70
2018-05-31T02:54:41.473Z,20.72
2018-05-31T02:57:10.802Z,20.76
2018-05-31T02:59:40.142Z,20.82
2018-05-31T03:02:09.477Z,20.84
2018-05-31T03:04:38.805Z,20.83
2018-05-31T03:07:08.119Z,20.81
2018-05-31T03:09:37.475Z,20.82
2018-05-31T03:12:07.612Z,20.84
2018-05-31T03:14:36.946Z,20.82
2018-05-31T03:17:06.264Z,20.82
2018-05-31T03:19:35.597Z,20.79
2018-05-31T03:22:05.674Z,20.83
2018-05-31T03:24:35.047Z,20.82
2018-05-31T03:27:04.371Z,20.84
2018-05-31T03:29:33.725Z,20.90
2018-05-31T03:32:03.826Z,20.91
2018-05-31T03:34:33.180Z,20.93
2018-05-31T03:37:02.546Z,20.91
2018-05-31T03:39:31.867Z,20.87
2018-05-31T03:42:01.997Z,20.85
2018-05-31T03:44:31.324Z,20.79
2018-05-31T03:47:00.669Z,20.55
2018-05-31T03:49:29.990Z,20.39
2018-05-31T03:52:00.099Z,20.44
2018-05-31T03:54:29.461Z,20.61
2018-05-31T03:56:58.821Z,20.65
2018-05-31T03:59:28.906Z,20.72
2018-05-31T04:01:58.261Z,20.76
2018-05-31T04:04:27.620Z,20.78
2018-05-31T04:06:56.961Z,20.85
2018-05-31T04:09:27.091Z,20.94
2018-05-31T04:11:56.450Z,21.04
2018-05-31T04:14:25.797Z,21.14
2018-05-31T04:16:55.136Z,21.25
2018-05-31T04:19:24.466Z,21.27
2018-05-31T04:21:53.808Z,21.32
2018-05-31T04:24:23.131Z,21.37
2018-05-31T04:26:52.474Z,21.38
2018-05-31T04:29:21.799Z,21.40
2018-05-31T04:31:51.153Z,21.42
2018-05-31T04:34:20.514Z,21.45
2018-05-31T04:36:49.850Z,21.44
2018-05-31T04:39:19.181Z,21.44
2018-05-31T04:41:48.503Z,21.42
2018-05-31T04:44:18.595Z,21.42
2018-05-31T04:46:47.933Z,21.48
2018-05-31T04:49:18.037Z,21.57
2018-05-31T04:51:47.371Z,21.62
2018-05-31T04:54:16.725Z,21.70
2018-05-31T04:56:46.009Z,21.67
2018-05-31T04:59:15.392Z,21.48
2018-05-31T05:01:44.707Z,21.39
2018-05-31T05:04:14.796Z,21.34
2018-05-31T05:06:44.921Z,21.39
2018-05-31T05:09:14.256Z,21.53
2018-05-31T05:11:43.592Z,21.57
2018-05-31T05:14:12.938Z,21.66
2018-05-31T05:16:42.287Z,21.66
2018-05-31T05:19:11.598Z,21.62
2018-05-31T05:21:40.929Z,21.71
2018-05-31T05:24:11.042Z,21.84
2018-05-31T05:26:40.361Z,21.93
2018-05-31T05:29:10.457Z,22.05
2018-05-31T05:31:39.806Z,22.24
2018-05-31T05:34:09.145Z,22.19
2018-05-31T05:36:38.509Z,22.19
2018-05-31T05:39:07.985Z,22.27
2018-05-31T05:41:38.089Z,22.41
2018-05-31T05:44:07.694Z,22.50
2018-05-31T05:46:37.034Z,22.48
2018-05-31T05:49:06.382Z,22.52
2018-05-31T05:51:35.712Z,22.49
2018-05-31T05:54:05.034Z,22.44
2018-05-31T05:56:35.145Z,22.47
2018-05-31T05:59:05.213Z,22.53
2018-05-31T06:01:34.557Z,22.68
2018-05-31T06:04:03.896Z,22.89
2018-05-31T06:06:33.211Z,23.07
2018-05-31T06:09:02.550Z,23.22
2018-05-31T06:11:31.885Z,23.35
2018-05-31T06:14:01.965Z,23.40
2018-05-31T06:16:31.329Z,23.57
2018-05-31T06:19:00.698Z,23.36
2018-05-31T06:21:29.983Z,23.22
2018-05-31T06:23:59.315Z,23.17
2018-05-31T06:26:29.514Z,23.28
2018-05-31T06:28:59.525Z,23.43
2018-05-31T06:31:28.875Z,23.49
2018-05-31T06:33:59.035Z,23.74
2018-05-31T06:36:28.371Z,23.80
2018-05-31T06:38:57.704Z,23.92
2018-05-31T06:41:27.097Z,24.09
2018-05-31T06:43:57.230Z,24.15
2018-05-31T06:46:27.307Z,24.20
2018-05-31T06:48:56.638Z,24.29
2018-05-31T06:51:25.952Z,24.42
2018-05-31T06:53:56.049Z,24.56
2018-05-31T06:56:25.359Z,24.64
2018-05-31T06:58:54.712Z,24.57
2018-05-31T07:01:24.031Z,24.59
2018-05-31T07:03:53.365Z,24.47
2018-05-31T07:06:22.694Z,24.46
2018-05-31T07:08:52.780Z,24.56
2018-05-31T07:11:22.281Z,24.60
2018-05-31T07:13:51.585Z,24.55
2018-05-31T07:16:20.908Z,24.55
2018-05-31T07:18:51.000Z,24.34
2018-05-31T07:21:20.351Z,24.48
2018-05-31T07:23:50.429Z,24.68
2018-05-31T07:26:19.758Z,24.83
2018-05-31T07:28:49.865Z,25.11
2018-05-31T07:31:19.283Z,25.12
2018-05-31T07:33:48.605Z,25.28
2018-05-31T07:36:17.956Z,25.46
2018-05-31T07:38:47.295Z,25.50
2018-05-31T07:41:16.594Z,25.67
2018-05-31T07:43:46.682Z,25.77
2018-05-31T07:46:16.038Z,25.69
2018-05-31T07:48:46.139Z,25.69
2018-05-31T07:51:15.449Z,25.74
2018-05-31T07:53:45.538Z,25.84
2018-05-31T07:56:14.858Z,25.88
2018-05-31T07:58:44.178Z,25.98
2018-05-31T08:01:14.277Z,25.98
2018-05-31T08:03:43.599Z,25.97
2018-05-31T08:06:16.930Z,25.85
2018-05-31T08:08:46.260Z,25.90
2018-05-31T08:11:15.629Z,25.91
2018-05-31T08:13:45.030Z,25.86
2018-05-31T08:16:14.337Z,25.89
2018-05-31T08:18:43.655Z,25.95
2018-05-31T08:21:12.974Z,26.07
2018-05-31T08:23:42.323Z,26.13
2018-05-31T08:26:12.412Z,26.25
2018-05-31T08:28:41.767Z,26.30
2018-05-31T08:31:11.083Z,26.43
2018-05-31T08:33:40.391Z,26.61
2018-05-31T08:36:09.715Z,26.79
2018-05-31T08:38:39.043Z,27.02
2018-05-31T08:41:09.168Z,27.24
2018-05-31T08:43:39.260Z,27.33
2018-05-31T08:46:08.605Z,27.42
2018-05-31T08:48:37.945Z,27.48
2018-05-31T08:51:07.351Z,27.56
2018-05-31T08:53:36.619Z,27.64
2018-05-31T08:56:05.945Z,27.68
2018-05-31T08:58:35.265Z,27.90
2018-05-31T09:01:04.649Z,28.12
2018-05-31T09:03:33.970Z,28.25
2018-05-31T09:06:03.326Z,28.41
2018-05-31T09:08:33.417Z,28.56
2018-05-31T09:11:02.783Z,28.72
2018-05-31T09:13:32.143Z,28.96
2018-05-31T09:16:01.511Z,29.15
2018-05-31T09:18:30.834Z,29.28
2018-05-31T09:21:00.164Z,29.37
2018-05-31T09:23:29.492Z,29.42
2018-05-31T09:25:58.800Z,29.51
2018-05-31T09:28:28.175Z,29.63
2018-05-31T09:30:58.286Z,29.68
2018-05-31T09:33:28.420Z,29.83
2018-05-31T09:35:58.506Z,30.00
2018-05-31T09:38:27.875Z,30.21
2018-05-31T09:40:57.173Z,30.45
2018-05-31T09:43:26.567Z,30.75
2018-05-31T09:45:55.872Z,31.03
2018-05-31T09:48:25.214Z,31.19
2018-05-31T09:50:54.573Z,31.24
2018-05-31T09:53:23.898Z,31.25
2018-05-31T09:55:53.251Z,31.40
2018-05-31T09:58:23.388Z,31.51
2018-05-31T10:00:52.725Z,31.29
2018-05-31T10:03:22.150Z,31.36
2018-05-31T10:05:51.530Z,31.23
2018-05-31T10:08:20.894Z,31.37
2018-05-31T10:10:50.295Z,31.65
2018-05-31T10:13:19.706Z,31.70
2018-05-31T10:15:49.800Z,32.03
2018-05-31T10:18:19.146Z,32.50
2018-05-31T10:20:48.497Z,32.97
2018-05-31T10:23:17.832Z,33.42
2018-05-31T10:25:47.901Z,33.45
2018-05-31T10:28:17.303Z,33.57
2018-05-31T10:30:46.614Z,33.46
2018-05-31T10:33:15.956Z,33.20
2018-05-31T10:35:46.056Z,33.33
2018-05-31T10:38:15.433Z,33.41
2018-05-31T10:40:44.761Z,33.35
2018-05-31T10:43:14.071Z,33.54
2018-05-31T10:45:43.396Z,33.70
2018-05-31T10:48:13.553Z,33.87
2018-05-31T10:50:42.866Z,34.11
2018-05-31T10:53:12.192Z,34.13
2018-05-31T10:55:41.545Z,34.13
2018-05-31T10:58:10.899Z,34.09
2018-05-31T11:00:40.253Z,34.23
2018-05-31T11:03:09.595Z,33.95
2018-05-31T11:05:38.916Z,34.39
2018-05-31T11:08:08.264Z,34.39
2018-05-31T11:10:37.583Z,34.05
2018-05-31T11:13:06.898Z,33.78
2018-05-31T11:15:36.893Z,34.03
2018-05-31T11:18:06.224Z,34.17
2018-05-31T11:20:35.538Z,34.56
2018-05-31T11:23:04.864Z,34.86
2018-05-31T11:25:34.186Z,35.10
2018-05-31T11:28:03.520Z,35.15
2018-05-31T11:30:32.844Z,35.01
2018-05-31T11:33:02.190Z,34.83
2018-05-31T11:35:32.265Z,34.73
2018-05-31T11:38:01.817Z,34.55
2018-05-31T11:40:31.890Z,34.50
2018-05-31T11:43:01.198Z,34.41
2018-05-31T11:45:30.538Z,34.67
2018-05-31T11:48:00.613Z,34.82
2018-05-31T11:50:29.918Z,34.79
2018-05-31T11:52:59.257Z,34.61
2018-05-31T11:55:29.344Z,34.66
2018-05-31T11:57:58.684Z,34.37
2018-05-31T12:00:28.790Z,34.55
2018-05-31T12:02:58.109Z,34.49
2018-05-31T12:05:28.216Z,34.69
2018-05-31T12:07:58.627Z,34.74
2018-05-31T12:10:27.971Z,34.71
2018-05-31T12:12:58.086Z,34.05
2018-05-31T12:15:28.163Z,33.16
2018-05-31T12:17:58.350Z,32.35
2018-05-31T12:20:27.661Z,31.96
2018-05-31T12:22:56.982Z,31.61
2018-05-31T12:25:26.314Z,30.79
2018-05-31T12:27:55.669Z,31.03
2018-05-31T12:30:24.956Z,30.87
2018-05-31T12:32:54.281Z,30.57
2018-05-31T12:35:23.633Z,30.28
2018-05-31T12:37:52.945Z,29.92
2018-05-31T12:40:23.025Z,29.61
2018-05-31T12:42:52.426Z,29.24
2018-05-31T12:45:21.733Z,29.26
2018-05-31T12:47:51.053Z,29.01
2018-05-31T12:50:22.318Z,28.73
2018-05-31T12:52:51.798Z,28.48
2018-05-31T12:55:21.133Z,28.38
2018-05-31T12:57:51.186Z,28.35
2018-05-31T13:00:20.518Z,28.18
2018-05-31T13:02:49.843Z,28.15
2018-05-31T13:05:19.149Z,28.09
2018-05-31T13:07:48.489Z,28.16
2018-05-31T13:10:17.805Z,28.07
2018-05-31T13:12:47.141Z,28.13
2018-05-31T13:15:16.490Z,27.95
2018-05-31T13:17:45.802Z,27.85
2018-05-31T13:20:15.129Z,27.78
2018-05-31T13:22:44.679Z,27.88
2018-05-31T13:25:14.941Z,27.78
2018-05-31T13:27:45.361Z,27.66
2018-05-31T13:30:15.788Z,27.54
2018-05-31T13:32:45.134Z,27.59
2018-05-31T13:35:14.678Z,27.70
2018-05-31T13:37:44.770Z,27.85
2018-05-31T13:40:14.111Z,27.92
2018-05-31T13:42:44.193Z,27.74
2018-05-31T13:45:13.530Z,27.69
2018-05-31T13:47:42.844Z,27.64
2018-05-31T13:50:12.165Z,27.39
2018-05-31T13:52:41.476Z,27.32
2018-05-31T13:55:10.833Z,27.29
2018-05-31T13:57:40.898Z,27.24
2018-05-31T14:00:10.869Z,27.21
2018-05-31T14:02:40.940Z,27.25
2018-05-31T14:05:10.291Z,27.24
2018-05-31T14:07:39.602Z,27.29
2018-05-31T14:10:09.694Z,27.31
2018-05-31T14:12:39.037Z,27.38
2018-05-31T14:15:09.114Z,27.27
2018-05-31T14:17:38.440Z,27.18
2018-05-31T14:20:08.527Z,27.03
2018-05-31T14:22:37.837Z,26.89
2018-05-31T14:25:07.170Z,26.85
2018-05-31T14:27:37.234Z,26.88
2018-05-31T14:30:06.548Z,26.90
2018-05-31T14:32:35.889Z,27.08
2018-05-31T14:35:05.207Z,27.10
2018-05-31T14:37:35.288Z,27.06
2018-05-31T14:40:04.599Z,27.05
2018-05-31T14:42:33.948Z,27.07
2018-05-31T14:45:03.271Z,27.23
2018-05-31T14:47:32.575Z,27.43
2018-05-31T14:50:01.919Z,27.68
2018-05-31T14:52:31.250Z,27.97
2018-05-31T14:55:01.347Z,28.23
2018-05-31T14:57:30.666Z,28.50
2018-05-31T15:00:00.753Z,28.69
2018-05-31T15:02:30.095Z,28.72
2018-05-31T15:05:00.234Z,28.99
2018-05-31T15:07:29.540Z,29.28
2018-05-31T15:09:58.879Z,29.36
2018-05-31T15:12:28.197Z,29.52
2018-05-31T15:14:57.486Z,29.63
2018-05-31T15:17:26.810Z,29.68
2018-05-31T15:19:56.908Z,29.79
2018-05-31T15:22:26.236Z,29.87
2018-05-31T15:24:56.327Z,29.87
2018-05-31T15:27:25.640Z,29.89
2018-05-31T15:29:54.938Z,30.03
2018-05-31T15:32:24.253Z,30.18
2018-05-31T15:34:53.577Z,30.24
2018-05-31T15:37:23.673Z,30.35
2018-05-31T15:39:52.985Z,30.58
2018-05-31T15:42:22.320Z,30.81
2018-05-31T15:44:51.657Z,31.00
2018-05-31T15:47:20.950Z,30.90
2018-05-31T15:49:50.274Z,30.80
2018-05-31T15:52:20.362Z,30.56
2018-05-31T15:54:50.891Z,30.49
2018-05-31T15:57:20.229Z,30.57
2018-05-31T15:59:49.529Z,30.60
2018-05-31T16:02:20.146Z,30.74
2018-05-31T16:04:49.470Z,30.76
2018-05-31T16:07:18.795Z,30.70
2018-05-31T16:09:48.120Z,30.64
2018-05-31T16:12:17.456Z,30.59
2018-05-31T16:14:46.788Z,30.52
2018-05-31T16:17:16.096Z,30.29
2018-05-31T16:19:45.415Z,30.10
2018-05-31T16:22:15.469Z,29.93
2018-05-31T16:24:44.793Z,29.91
2018-05-31T16:27:14.115Z,29.90
2018-05-31T16:29:43.421Z,29.88
2018-05-31T16:32:12.747Z,29.91
2018-05-31T16:34:42.858Z,30.01
2018-05-31T16:37:12.168Z,30.10
2018-05-31T16:39:42.249Z,30.08
2018-05-31T16:42:11.592Z,30.12
2018-05-31T16:44:41.710Z,30.04
2018-05-31T16:47:11.801Z,29.91
2018-05-31T16:49:41.120Z,29.70
2018-05-31T16:52:10.461Z,29.51
2018-05-31T16:54:39.786Z,29.32
2018-05-31T16:57:09.116Z,29.10
2018-05-31T16:59:38.423Z,28.99
2018-05-31T17:02:07.768Z,28.90
2018-05-31T17:04:37.119Z,28.67
2018-05-31T17:07:06.440Z,28.56
2018-05-31T17:09:35.787Z,28.48
2018-05-31T17:12:05.098Z,28.40
2018-05-31T17:14:34.980Z,28.28
2018-05-31T17:17:06.129Z,28.15
2018-05-31T17:19:35.466Z,28.03
2018-05-31T17:22:04.795Z,27.98
2018-05-31T17:24:34.134Z,27.94
2018-05-31T17:27:04.246Z,27.81
2018-05-31T17:29:34.348Z,27.70
2018-05-31T17:32:03.696Z,27.58
2018-05-31T17:34:33.038Z,27.57
2018-05-31T17:37:02.361Z,27.55
2018-05-31T17:39:31.695Z,27.45
2018-05-31T17:42:01.016Z,27.36
2018-05-31T17:44:30.340Z,27.26
2018-05-31T17:46:59.682Z,27.16
2018-05-31T17:49:29.017Z,27.09
2018-05-31T17:51:58.349Z,27.04
2018-05-31T17:54:27.666Z,26.99
2018-05-31T17:56:56.975Z,26.99
2018-05-31T17:59:26.310Z,27.00
2018-05-31T18:02:02.343Z,26.97
2018-05-31T18:04:33.209Z,26.94
2018-05-31T18:07:03.316Z,26.86
2018-05-31T18:09:32.631Z,26.87
2018-05-31T18:12:02.558Z,26.83
2018-05-31T18:14:31.862Z,26.81
2018-05-31T18:17:01.191Z,26.82
2018-05-31T18:19:30.494Z,26.83
2018-05-31T18:21:59.836Z,26.84
2018-05-31T18:24:29.149Z,26.87
2018-05-31T18:26:58.473Z,26.90
2018-05-31T18:29:28.591Z,26.91
2018-05-31T18:31:58.668Z,26.94
2018-05-31T18:34:27.987Z,26.94
2018-05-31T18:36:57.305Z,26.94
2018-05-31T18:39:27.376Z,26.93
2018-05-31T18:41:56.766Z,26.86
2018-05-31T18:44:26.088Z,26.79
2018-05-31T18:46:55.441Z,26.75
2018-05-31T18:49:24.816Z,26.70
2018-05-31T18:51:54.878Z,26.59
2018-05-31T18:54:24.212Z,26.45
2018-05-31T18:56:53.537Z,26.36
2018-05-31T18:59:22.829Z,26.24
2018-05-31T19:01:52.183Z,26.16
2018-05-31T19:04:22.247Z,26.14
2018-05-31T19:06:51.605Z,26.06
2018-05-31T19:09:27.162Z,25.99
2018-05-31T19:11:56.504Z,25.94
2018-05-31T19:14:25.844Z,25.86
2018-05-31T19:16:55.933Z,25.79
2018-05-31T19:19:30.803Z,25.74
2018-05-31T19:22:00.115Z,25.66
2018-05-31T19:24:35.619Z,25.55
2018-05-31T19:27:04.941Z,25.48
2018-05-31T19:29:34.295Z,25.41
2018-05-31T19:32:03.625Z,25.33
2018-05-31T19:34:32.984Z,25.28
2018-05-31T19:37:08.443Z,25.19
2018-05-31T19:39:37.811Z,25.14
2018-05-31T19:45:07.648Z,25.00
2018-05-31T19:47:37.741Z,24.87
2018-05-31T19:50:07.045Z,24.77
2018-05-31T19:52:41.705Z,24.69
2018-05-31T19:55:11.769Z,24.59
2018-05-31T19:57:46.610Z,24.47
2018-05-31T20:00:21.201Z,24.39
2018-05-31T20:02:55.956Z,24.33
2018-05-31T20:05:25.256Z,24.26
2018-05-31T20:07:54.583Z,24.19
2018-05-31T20:10:23.891Z,24.20
2018-05-31T20:12:54.721Z,24.11
2018-05-31T20:15:24.062Z,24.12
2018-05-31T20:17:54.128Z,24.07
2018-05-31T20:20:23.436Z,24.04
2018-05-31T20:22:52.773Z,23.97
2018-05-31T20:25:22.069Z,23.98
2018-05-31T20:27:51.393Z,23.96
2018-05-31T20:30:22.391Z,23.95
2018-05-31T20:32:51.734Z,23.85
2018-05-31T20:35:21.048Z,23.78
2018-05-31T20:37:51.147Z,23.71
2018-05-31T20:40:20.483Z,23.63
2018-05-31T20:42:49.805Z,23.59
2018-05-31T20:45:19.109Z,23.56
2018-05-31T20:47:48.432Z,23.50
2018-05-31T20:50:17.735Z,23.47
2018-05-31T20:52:47.049Z,23.45
2018-05-31T20:55:16.390Z,23.42
2018-05-31T20:57:46.490Z,23.42
2018-05-31T21:00:15.813Z,23.44
2018-05-31T21:02:45.919Z,23.35
2018-05-31T21:05:15.255Z,23.28
2018-05-31T21:07:44.583Z,23.26
2018-05-31T21:10:13.904Z,23.22
2018-05-31T21:12:43.224Z,23.20
2018-05-31T21:15:12.533Z,23.17
2018-05-31T21:17:42.595Z,23.16
2018-05-31T21:20:11.932Z,23.10
2018-05-31T21:22:41.271Z,23.08
2018-05-31T21:25:11.354Z,23.05
2018-05-31T21:27:40.675Z,23.03
2018-05-31T21:30:09.979Z,22.97
2018-05-31T21:32:39.295Z,22.94
2018-05-31T21:35:09.378Z,22.88
2018-05-31T21:37:38.881Z,22.84
2018-05-31T21:40:08.961Z,22.80
2018-05-31T21:42:38.284Z,22.76
2018-05-31T21:45:07.594Z,22.70
2018-05-31T21:47:36.923Z,22.64
2018-05-31T21:50:06.237Z,22.62
2018-05-31T21:52:35.553Z,22.59
2018-05-31T21:55:05.652Z,22.58
2018-05-31T21:57:35.513Z,22.55
2018-05-31T22:00:04.802Z,22.50
2018-05-31T22:02:34.124Z,22.48
2018-05-31T22:05:03.427Z,22.46
2018-05-31T22:07:32.756Z,22.42
2018-05-31T22:10:02.062Z,22.40
2018-05-31T22:12:31.399Z,22.33
2018-05-31T22:15:00.718Z,22.28
2018-05-31T22:17:30.648Z,22.25
2018-05-31T22:20:00.050Z,22.21
2018-05-31T22:22:29.650Z,22.17
2018-05-31T22:24:58.969Z,22.13
2018-05-31T22:27:28.294Z,22.10
2018-05-31T22:29:57.606Z,22.05
2018-05-31T22:32:26.936Z,22.03
2018-05-31T22:34:56.253Z,21.99
2018-05-31T22:37:26.346Z,21.95
2018-05-31T22:39:55.671Z,21.92
2018-05-31T22:42:25.747Z,21.88
2018-05-31T22:44:55.083Z,21.85
2018-05-31T22:47:24.401Z,21.81
2018-05-31T22:49:54.524Z,21.79
2018-05-31T22:52:24.581Z,21.76
2018-05-31T22:54:53.886Z,21.74
2018-05-31T22:57:23.202Z,21.71
2018-05-31T22:59:52.548Z,21.69
2018-05-31T23:02:22.664Z,21.67
2018-05-31T23:04:51.969Z,21.67
2018-05-31T23:07:22.123Z,21.64
2018-05-31T23:09:51.402Z,21.61
2018-05-31T23:12:21.497Z,21.56
2018-05-31T23:14:50.794Z,21.53
2018-05-31T23:17:20.137Z,21.53
2018-05-31T23:19:49.429Z,21.52
2018-05-31T23:22:18.747Z,21.50
2018-05-31T23:24:48.064Z,21.46
2018-05-31T23:27:17.373Z,21.44
2018-05-31T23:29:46.693Z,21.42
2018-05-31T23:32:16.108Z,21.39
2018-05-31T23:34:45.449Z,21.36
2018-05-31T23:37:14.796Z,21.34
2018-05-31T23:39:44.121Z,21.32
2018-05-31T23:42:13.445Z,21.28
2018-05-31T23:44:43.536Z,21.28
2018-05-31T23:47:12.870Z,21.27
2018-05-31T23:49:42.963Z,21.26
2018-05-31T23:52:12.307Z,21.21
2018-05-31T23:54:41.651Z,21.14
2018-05-31T23:57:10.997Z,21.13
2018-05-31T23:59:41.098Z,21.13
